Deunquat, Ohio
Current Conditions -  °F | °C
As of 5:53 AM on Thursday 23 Oct 2014 (Local Time) from KMNN Reporting Station
Haze Haze  
Wind Chill: 34°   Ceiling: Unl
Heat Index: 38°   Visibility: 2.5mi
Dew Point: 37°   Wind: 5mph
Humidity: 97%   Direction: 310°NW
Pressure: 30.24"   Gusts: NA
Location:  40.948°N, 83.1346°W
Report Text: KMNN 230953Z AUTO 31004KT 2 1/2SM BR CLR 03/03 A3024 RMK AO2 SLP247 T00330028 TSNO
Loading
Personal Weather Stations






























Interactive Weather Map
Tropical Storm Tracking
New forecast layout! Learn more

10-Day Weather Forecast

Advertisements
Track Severe Weather on mobile